Amanda, OH (43102)

9:10 AM EDT on August 22, 2014 (GMT -0400)
Pickaway-Fairfield Line | Change Station
CLOSE
Current Station
Personal Weather Station
Location: Ashville, OH
Elevation: 815 ft
Nearby Weather Stations

Elev 815 ft 39.71 °N, 82.84 °W | Updated 11 minutes ago

Overcast
Overcast
69.8 °F
Feels Like 69.8 °F
N
0.0
Wind Variable Wind from SSE

Today
High -- | Low -- °F
--% Chance of Precip.
Yesterday
High -- | Low -- °F
Precip. -- in
6:49 AM 8:17 PM
Waning Crescent, 8% visible
Pressure 30.01 in
Visibility 10.0 miles
Clouds Mostly Cloudy 2300 ft
Overcast 2900 ft
Dew Point 69 °F
Humidity 96%
Rainfall 0.27 in
Snow Depth Not available.
UV 1 out of 12
Pollen 6.50 out of 12
Ozone Good
PM2.5 Good
Flu Activity Not available.
METAR KLHQ 221253Z AUTO 00000KT 10SM BKN023 OVC029 22/20 A3003 RMK AO2 SLP163 T02170200

More Conditions Fewer Conditions

Pressure 30.01 in
Visibility 10.0 miles
Clouds Mostly Cloudy 2300 ft
Overcast 2900 ft
Dew Point 69 °F
Humidity 96%
Rainfall 0.27 in
Snow Depth Not available.
UV 1 out of 12
Pollen 6.50 out of 12
Ozone Good
PM2.5 Good
Flu Activity Not available.
METAR KLHQ 221253Z AUTO 00000KT 10SM BKN023 OVC029 22/20 A3003 RMK AO2 SLP163 T02170200

More Conditions Fewer Conditions

10-Day Weather Forecast

Almanac

Astronomy

Aug. 22, 2014 Rise Set
Actual Time 6:49 AM EDT 8:17 PM EDT
Civil Twilight 6:21 AM EDT 8:45 PM EDT
Nautical Twilight 5:47 AM EDT 9:19 PM EDT
Astronomical Twilight 5:11 AM EDT 9:55 PM EDT
Moon 4:11 AM EDT 6:24 PM EDT
Length of Visible Light 14h 23m
Length of Day
13h 27m
Tomorrow will be 2m 23s shorter.
Waning Crescent, 8% of the Moon is Illuminated
Today
Waning Crescent
Aug 25
New
Sep 2
First Quarter
Sep 8
Full
Sep 15
Last Quarter

Today's Extremes

State Highs State Lows

Community

WunderPhotos

Upload Photos

1,746,160 photos uploaded!

WunderBlogs® & News

Nearby

Air Quality

  Air Quality AQ Index Pollutant
Yesterday Good
PM2.5
Yesterday Good
OZONE
Current Good
PM2.5
Current Good
OZONE
Friday Moderate
PM2.5
Friday Good
OZONE
Saturday Moderate
OZONE
Saturday Moderate
PM2.5
Sunday Moderate
OZONE
Sunday Moderate
PM2.5
Monday Moderate
OZONE
Monday Moderate
PM2.5
Tuesday Moderate
OZONE
Tuesday Moderate
PM2.5

Snow Depth

Station Depth Elevation
No new snow has been reported.

Earthquake Activity

City Distance Mag. Time & Date
No recent earthquake activity has been reported nearby.
Minimum magnitude displayed is 2.5.

Coastal Water Temperatures

Place Temperature
No Stations Reporting

Nearby Weather Stations